sensor_id;sensor_type;location;lat;lon;timestamp;temperature;humidity
16289;DHT22;26089;43.538;5.250;2022-08-04T00:01:01;24.10;99.90
16289;DHT22;26089;43.538;5.250;2022-08-04T00:03:35;24.10;99.90
16289;DHT22;26089;43.538;5.250;2022-08-04T00:06:08;24.10;99.90
16289;DHT22;26089;43.538;5.250;2022-08-04T00:08:43;24.10;99.90
16289;DHT22;26089;43.538;5.250;2022-08-04T00:11:14;24.10;99.90
16289;DHT22;26089;43.538;5.250;2022-08-04T00:13:47;24.10;99.90
16289;DHT22;26089;43.538;5.250;2022-08-04T00:16:15;24.10;99.90
16289;DHT22;26089;43.538;5.250;2022-08-04T00:18:49;24.10;99.90
16289;DHT22;26089;43.538;5.250;2022-08-04T00:21:18;24.10;99.90
16289;DHT22;26089;43.538;5.250;2022-08-04T00:23:48;24.00;99.90
16289;DHT22;26089;43.538;5.250;2022-08-04T00:26:17;24.00;99.90
16289;DHT22;26089;43.538;5.250;2022-08-04T00:28:45;24.00;99.90
16289;DHT22;26089;43.538;5.250;2022-08-04T00:31:14;23.90;99.90
16289;DHT22;26089;43.538;5.250;2022-08-04T00:33:44;23.90;99.90
16289;DHT22;26089;43.538;5.250;2022-08-04T00:36:12;23.80;99.90
16289;DHT22;26089;43.538;5.250;2022-08-04T00:38:40;23.80;99.90
16289;DHT22;26089;43.538;5.250;2022-08-04T00:41:18;23.70;99.90
16289;DHT22;26089;43.538;5.250;2022-08-04T00:43:59;23.70;99.90
16289;DHT22;26089;43.538;5.250;2022-08-04T00:46:50;23.70;99.90
16289;DHT22;26089;43.538;5.250;2022-08-04T00:49:44;23.70;99.90
16289;DHT22;26089;43.538;5.250;2022-08-04T00:52:27;23.70;99.90
16289;DHT22;26089;43.538;5.250;2022-08-04T00:58:02;23.70;99.90
16289;DHT22;26089;43.538;5.250;2022-08-04T01:00:37;23.70;99.90
16289;DHT22;26089;43.538;5.250;2022-08-04T01:03:11;23.70;99.90
16289;DHT22;26089;43.538;5.250;2022-08-04T01:05:51;23.70;99.90
16289;DHT22;26089;43.538;5.250;2022-08-04T01:08:38;23.70;99.90
16289;DHT22;26089;43.538;5.250;2022-08-04T01:11:16;23.70;99.90
16289;DHT22;26089;43.538;5.250;2022-08-04T01:14:17;23.70;99.90
16289;DHT22;26089;43.538;5.250;2022-08-04T01:16:51;23.70;99.90
16289;DHT22;26089;43.538;5.250;2022-08-04T01:22:42;23.70;99.90
16289;DHT22;26089;43.538;5.250;2022-08-04T01:28:29;23.60;99.90
16289;DHT22;26089;43.538;5.250;2022-08-04T01:31:08;23.60;99.90
16289;DHT22;26089;43.538;5.250;2022-08-04T01:33:37;23.60;99.90
16289;DHT22;26089;43.538;5.250;2022-08-04T01:36:06;23.60;99.90
16289;DHT22;26089;43.538;5.250;2022-08-04T01:38:36;23.60;99.90
16289;DHT22;26089;43.538;5.250;2022-08-04T01:41:07;23.70;99.90
16289;DHT22;26089;43.538;5.250;2022-08-04T01:43:40;23.70;99.90
16289;DHT22;26089;43.538;5.250;2022-08-04T01:46:11;23.70;99.90
16289;DHT22;26089;43.538;5.250;2022-08-04T01:48:39;23.60;99.90
16289;DHT22;26089;43.538;5.250;2022-08-04T01:51:08;23.60;99.90
16289;DHT22;26089;43.538;5.250;2022-08-04T01:53:36;23.60;99.90
16289;DHT22;26089;43.538;5.250;2022-08-04T01:56:05;23.60;99.90
16289;DHT22;26089;43.538;5.250;2022-08-04T01:58:34;23.60;99.90
16289;DHT22;26089;43.538;5.250;2022-08-04T02:01:03;23.60;99.90
16289;DHT22;26089;43.538;5.250;2022-08-04T02:03:34;23.60;99.90
16289;DHT22;26089;43.538;5.250;2022-08-04T02:06:10;23.60;99.90
16289;DHT22;26089;43.538;5.250;2022-08-04T02:08:49;23.50;99.90
16289;DHT22;26089;43.538;5.250;2022-08-04T02:11:20;23.50;99.90
16289;DHT22;26089;43.538;5.250;2022-08-04T02:13:53;23.40;99.90
16289;DHT22;26089;43.538;5.250;2022-08-04T02:16:29;23.40;99.90
16289;DHT22;26089;43.538;5.250;2022-08-04T02:19:03;23.40;99.90
16289;DHT22;26089;43.538;5.250;2022-08-04T02:21:36;23.40;99.90
16289;DHT22;26089;43.538;5.250;2022-08-04T02:24:07;23.40;99.90
16289;DHT22;26089;43.538;5.250;2022-08-04T02:26:35;23.40;99.90
16289;DHT22;26089;43.538;5.250;2022-08-04T02:29:09;23.40;99.90
16289;DHT22;26089;43.538;5.250;2022-08-04T02:31:44;23.40;99.90
16289;DHT22;26089;43.538;5.250;2022-08-04T02:34:21;23.40;99.90
16289;DHT22;26089;43.538;5.250;2022-08-04T02:36:50;23.40;99.90
16289;DHT22;26089;43.538;5.250;2022-08-04T02:39:19;23.40;99.90
16289;DHT22;26089;43.538;5.250;2022-08-04T02:41:48;23.40;99.90
16289;DHT22;26089;43.538;5.250;2022-08-04T02:44:21;23.30;99.90
16289;DHT22;26089;43.538;5.250;2022-08-04T02:46:51;23.30;99.90
16289;DHT22;26089;43.538;5.250;2022-08-04T02:49:21;23.20;99.90
16289;DHT22;26089;43.538;5.250;2022-08-04T02:51:50;23.20;99.90
16289;DHT22;26089;43.538;5.250;2022-08-04T02:54:19;23.20;99.90
16289;DHT22;26089;43.538;5.250;2022-08-04T02:56:50;23.20;99.90
16289;DHT22;26089;43.538;5.250;2022-08-04T02:59:22;23.20;99.90
16289;DHT22;26089;43.538;5.250;2022-08-04T03:01:54;23.20;99.90
16289;DHT22;26089;43.538;5.250;2022-08-04T03:04:31;23.20;99.90
16289;DHT22;26089;43.538;5.250;2022-08-04T03:13:32;23.10;99.90
16289;DHT22;26089;43.538;5.250;2022-08-04T03:16:46;23.10;99.90
16289;DHT22;26089;43.538;5.250;2022-08-04T03:22:43;23.10;99.90
16289;DHT22;26089;43.538;5.250;2022-08-04T03:28:43;23.20;99.90
16289;DHT22;26089;43.538;5.250;2022-08-04T03:31:43;23.20;99.90
16289;DHT22;26089;43.538;5.250;2022-08-04T03:34:27;23.20;99.90
16289;DHT22;26089;43.538;5.250;2022-08-04T03:37:24;23.20;99.90
16289;DHT22;26089;43.538;5.250;2022-08-04T03:40:28;23.20;99.90
16289;DHT22;26089;43.538;5.250;2022-08-04T03:43:25;23.20;99.90
16289;DHT22;26089;43.538;5.250;2022-08-04T03:52:09;23.10;99.90
16289;DHT22;26089;43.538;5.250;2022-08-04T04:01:22;22.90;99.90
16289;DHT22;26089;43.538;5.250;2022-08-04T04:04:09;22.90;99.90
16289;DHT22;26089;43.538;5.250;2022-08-04T04:06:52;22.90;99.90
16289;DHT22;26089;43.538;5.250;2022-08-04T04:10:02;22.80;99.90
16289;DHT22;26089;43.538;5.250;2022-08-04T04:12:41;22.80;99.90
16289;DHT22;26089;43.538;5.250;2022-08-04T04:15:31;22.80;99.90
16289;DHT22;26089;43.538;5.250;2022-08-04T04:18:19;22.80;99.90
16289;DHT22;26089;43.538;5.250;2022-08-04T04:21:04;22.80;99.90
16289;DHT22;26089;43.538;5.250;2022-08-04T04:26:51;22.70;99.90
16289;DHT22;26089;43.538;5.250;2022-08-04T04:32:37;22.60;99.90
16289;DHT22;26089;43.538;5.250;2022-08-04T04:35:25;22.60;99.90
16289;DHT22;26089;43.538;5.250;2022-08-04T04:40:51;22.50;99.90
16289;DHT22;26089;43.538;5.250;2022-08-04T04:43:53;22.40;99.90
16289;DHT22;26089;43.538;5.250;2022-08-04T04:46:37;22.40;99.90
16289;DHT22;26089;43.538;5.250;2022-08-04T04:49:17;22.50;99.90
16289;DHT22;26089;43.538;5.250;2022-08-04T04:51:49;22.50;99.90
16289;DHT22;26089;43.538;5.250;2022-08-04T04:54:27;22.60;99.90
16289;DHT22;26089;43.538;5.250;2022-08-04T04:57:04;22.60;99.90
16289;DHT22;26089;43.538;5.250;2022-08-04T04:59:35;22.70;99.90
16289;DHT22;26089;43.538;5.250;2022-08-04T05:02:32;22.70;99.90
16289;DHT22;26089;43.538;5.250;2022-08-04T05:05:23;22.70;99.90
16289;DHT22;26089;43.538;5.250;2022-08-04T05:08:20;22.80;99.90
16289;DHT22;26089;43.538;5.250;2022-08-04T05:11:09;22.80;99.90
16289;DHT22;26089;43.538;5.250;2022-08-04T05:13:43;22.80;99.90
16289;DHT22;26089;43.538;5.250;2022-08-04T05:16:17;22.80;99.90
16289;DHT22;26089;43.538;5.250;2022-08-04T05:18:48;22.80;99.90
16289;DHT22;26089;43.538;5.250;2022-08-04T05:21:32;22.90;99.90
16289;DHT22;26089;43.538;5.250;2022-08-04T05:24:02;23.00;99.90
16289;DHT22;26089;43.538;5.250;2022-08-04T05:26:32;23.10;99.90
16289;DHT22;26089;43.538;5.250;2022-08-04T05:29:06;23.10;99.90
16289;DHT22;26089;43.538;5.250;2022-08-04T05:31:38;23.20;99.90
16289;DHT22;26089;43.538;5.250;2022-08-04T05:34:10;23.20;99.90
16289;DHT22;26089;43.538;5.250;2022-08-04T05:36:43;23.20;99.90
16289;DHT22;26089;43.538;5.250;2022-08-04T05:39:16;23.30;99.90
16289;DHT22;26089;43.538;5.250;2022-08-04T05:41:44;23.30;99.90
16289;DHT22;26089;43.538;5.250;2022-08-04T05:44:14;23.40;99.90
16289;DHT22;26089;43.538;5.250;2022-08-04T05:46:42;23.30;99.90
16289;DHT22;26089;43.538;5.250;2022-08-04T05:49:10;23.30;99.90
16289;DHT22;26089;43.538;5.250;2022-08-04T05:51:40;23.40;99.90
16289;DHT22;26089;43.538;5.250;2022-08-04T05:54:09;23.40;99.90
16289;DHT22;26089;43.538;5.250;2022-08-04T05:56:37;23.40;99.90
16289;DHT22;26089;43.538;5.250;2022-08-04T05:59:05;23.60;99.90
16289;DHT22;26089;43.538;5.250;2022-08-04T06:01:33;23.70;99.90
16289;DHT22;26089;43.538;5.250;2022-08-04T06:04:01;23.90;99.90
16289;DHT22;26089;43.538;5.250;2022-08-04T06:06:29;23.90;99.90
16289;DHT22;26089;43.538;5.250;2022-08-04T06:08:58;23.90;99.90
16289;DHT22;26089;43.538;5.250;2022-08-04T06:11:27;24.10;99.90
16289;DHT22;26089;43.538;5.250;2022-08-04T06:13:56;24.30;99.90
16289;DHT22;26089;43.538;5.250;2022-08-04T06:16:28;24.30;99.90
16289;DHT22;26089;43.538;5.250;2022-08-04T06:19:00;24.50;99.90
16289;DHT22;26089;43.538;5.250;2022-08-04T06:21:29;24.50;99.90
16289;DHT22;26089;43.538;5.250;2022-08-04T06:23:59;24.60;99.90
16289;DHT22;26089;43.538;5.250;2022-08-04T06:26:27;24.70;99.90
16289;DHT22;26089;43.538;5.250;2022-08-04T06:28:56;24.80;99.90
16289;DHT22;26089;43.538;5.250;2022-08-04T06:31:25;24.80;99.90
16289;DHT22;26089;43.538;5.250;2022-08-04T06:34:09;24.90;99.90
16289;DHT22;26089;43.538;5.250;2022-08-04T06:36:38;24.90;99.90
16289;DHT22;26089;43.538;5.250;2022-08-04T06:39:09;24.70;99.90
16289;DHT22;26089;43.538;5.250;2022-08-04T06:41:37;24.70;99.90
16289;DHT22;26089;43.538;5.250;2022-08-04T06:44:08;24.70;99.90
16289;DHT22;26089;43.538;5.250;2022-08-04T06:46:37;24.70;99.90
16289;DHT22;26089;43.538;5.250;2022-08-04T06:49:06;24.70;99.90
16289;DHT22;26089;43.538;5.250;2022-08-04T06:51:34;24.70;99.90
16289;DHT22;26089;43.538;5.250;2022-08-04T06:54:02;24.80;99.90
16289;DHT22;26089;43.538;5.250;2022-08-04T06:56:33;24.80;99.90
16289;DHT22;26089;43.538;5.250;2022-08-04T06:59:01;25.00;99.90
16289;DHT22;26089;43.538;5.250;2022-08-04T07:01:29;25.10;99.90
16289;DHT22;26089;43.538;5.250;2022-08-04T07:03:57;25.20;99.90
16289;DHT22;26089;43.538;5.250;2022-08-04T07:06:25;25.50;99.90
16289;DHT22;26089;43.538;5.250;2022-08-04T07:08:52;26.50;99.90
16289;DHT22;26089;43.538;5.250;2022-08-04T07:11:21;27.20;99.90
16289;DHT22;26089;43.538;5.250;2022-08-04T07:13:50;27.10;99.90
16289;DHT22;26089;43.538;5.250;2022-08-04T07:16:20;27.60;99.90
16289;DHT22;26089;43.538;5.250;2022-08-04T07:18:47;28.60;99.90
16289;DHT22;26089;43.538;5.250;2022-08-04T07:21:20;29.10;99.90
16289;DHT22;26089;43.538;5.250;2022-08-04T07:23:48;29.40;99.90
16289;DHT22;26089;43.538;5.250;2022-08-04T07:26:15;29.70;99.90
16289;DHT22;26089;43.538;5.250;2022-08-04T07:28:44;30.20;99.90
16289;DHT22;26089;43.538;5.250;2022-08-04T07:31:15;30.60;99.90
16289;DHT22;26089;43.538;5.250;2022-08-04T07:33:43;30.90;99.90
16289;DHT22;26089;43.538;5.250;2022-08-04T07:36:11;31.10;99.90
16289;DHT22;26089;43.538;5.250;2022-08-04T07:38:40;30.80;99.90
16289;DHT22;26089;43.538;5.250;2022-08-04T07:41:07;31.00;99.90
16289;DHT22;26089;43.538;5.250;2022-08-04T07:43:35;31.10;99.90
16289;DHT22;26089;43.538;5.250;2022-08-04T07:46:03;31.40;99.90
16289;DHT22;26089;43.538;5.250;2022-08-04T07:48:32;31.70;99.90
16289;DHT22;26089;43.538;5.250;2022-08-04T07:50:59;31.60;99.90
16289;DHT22;26089;43.538;5.250;2022-08-04T07:53:28;31.60;99.90
16289;DHT22;26089;43.538;5.250;2022-08-04T07:55:55;31.50;99.90
16289;DHT22;26089;43.538;5.250;2022-08-04T07:58:22;31.80;99.90
16289;DHT22;26089;43.538;5.250;2022-08-04T08:00:50;31.80;99.90
16289;DHT22;26089;43.538;5.250;2022-08-04T08:03:18;32.00;99.90
16289;DHT22;26089;43.538;5.250;2022-08-04T08:05:47;32.10;99.90
16289;DHT22;26089;43.538;5.250;2022-08-04T08:08:14;32.20;99.90
16289;DHT22;26089;43.538;5.250;2022-08-04T08:10:46;32.20;99.90
16289;DHT22;26089;43.538;5.250;2022-08-04T08:13:13;32.00;99.90
16289;DHT22;26089;43.538;5.250;2022-08-04T08:15:43;31.80;99.90
16289;DHT22;26089;43.538;5.250;2022-08-04T08:18:11;31.90;99.90
16289;DHT22;26089;43.538;5.250;2022-08-04T08:20:38;32.30;99.90
16289;DHT22;26089;43.538;5.250;2022-08-04T08:23:07;32.30;99.90
16289;DHT22;26089;43.538;5.250;2022-08-04T08:25:34;32.10;99.90
16289;DHT22;26089;43.538;5.250;2022-08-04T08:28:03;32.30;99.90
16289;DHT22;26089;43.538;5.250;2022-08-04T08:30:31;32.20;99.90
16289;DHT22;26089;43.538;5.250;2022-08-04T08:33:01;32.30;99.90
16289;DHT22;26089;43.538;5.250;2022-08-04T08:35:33;32.40;99.90
16289;DHT22;26089;43.538;5.250;2022-08-04T08:38:05;32.70;99.90
16289;DHT22;26089;43.538;5.250;2022-08-04T08:40:40;33.00;99.90
16289;DHT22;26089;43.538;5.250;2022-08-04T08:43:35;32.60;99.90
16289;DHT22;26089;43.538;5.250;2022-08-04T08:49:34;31.70;99.90
16289;DHT22;26089;43.538;5.250;2022-08-04T08:52:19;32.00;99.90
16289;DHT22;26089;43.538;5.250;2022-08-04T08:55:17;32.80;99.90
16289;DHT22;26089;43.538;5.250;2022-08-04T08:58:06;33.30;99.90
16289;DHT22;26089;43.538;5.250;2022-08-04T09:00:46;33.50;99.90
16289;DHT22;26089;43.538;5.250;2022-08-04T09:03:33;33.80;99.90
16289;DHT22;26089;43.538;5.250;2022-08-04T09:06:17;33.80;99.90
16289;DHT22;26089;43.538;5.250;2022-08-04T09:09:08;34.10;99.90
16289;DHT22;26089;43.538;5.250;2022-08-04T09:11:42;34.40;99.90
16289;DHT22;26089;43.538;5.250;2022-08-04T09:14:19;34.50;99.90
16289;DHT22;26089;43.538;5.250;2022-08-04T09:16:51;34.40;99.90
16289;DHT22;26089;43.538;5.250;2022-08-04T09:19:23;34.70;99.90
16289;DHT22;26089;43.538;5.250;2022-08-04T09:22:00;35.10;99.90
16289;DHT22;26089;43.538;5.250;2022-08-04T09:24:34;34.80;99.90
16289;DHT22;26089;43.538;5.250;2022-08-04T09:27:12;34.60;99.90
16289;DHT22;26089;43.538;5.250;2022-08-04T09:29:46;34.70;99.90
16289;DHT22;26089;43.538;5.250;2022-08-04T09:32:22;34.90;99.90
16289;DHT22;26089;43.538;5.250;2022-08-04T09:34:59;34.70;99.90
16289;DHT22;26089;43.538;5.250;2022-08-04T09:37:37;35.00;99.90
16289;DHT22;26089;43.538;5.250;2022-08-04T09:40:12;35.00;99.90
16289;DHT22;26089;43.538;5.250;2022-08-04T09:42:51;35.00;99.90
16289;DHT22;26089;43.538;5.250;2022-08-04T09:45:28;35.20;99.90
16289;DHT22;26089;43.538;5.250;2022-08-04T09:48:01;35.50;99.90
16289;DHT22;26089;43.538;5.250;2022-08-04T09:50:33;35.50;99.90
16289;DHT22;26089;43.538;5.250;2022-08-04T09:53:13;35.50;99.90
16289;DHT22;26089;43.538;5.250;2022-08-04T09:55:49;35.70;99.90
16289;DHT22;26089;43.538;5.250;2022-08-04T09:58:27;35.60;99.90
16289;DHT22;26089;43.538;5.250;2022-08-04T10:01:00;35.70;99.90
16289;DHT22;26089;43.538;5.250;2022-08-04T10:03:32;36.00;99.90
16289;DHT22;26089;43.538;5.250;2022-08-04T10:06:08;35.90;99.90
16289;DHT22;26089;43.538;5.250;2022-08-04T10:08:51;35.70;99.90
16289;DHT22;26089;43.538;5.250;2022-08-04T10:11:28;35.60;99.90
16289;DHT22;26089;43.538;5.250;2022-08-04T10:14:04;35.70;99.90
16289;DHT22;26089;43.538;5.250;2022-08-04T10:16:44;35.70;99.90
16289;DHT22;26089;43.538;5.250;2022-08-04T10:19:23;36.40;99.90
16289;DHT22;26089;43.538;5.250;2022-08-04T10:22:01;36.40;99.90
16289;DHT22;26089;43.538;5.250;2022-08-04T10:24:46;36.50;99.90
16289;DHT22;26089;43.538;5.250;2022-08-04T10:27:23;36.70;99.90
16289;DHT22;26089;43.538;5.250;2022-08-04T10:29:56;36.30;99.90
16289;DHT22;26089;43.538;5.250;2022-08-04T10:32:25;36.60;99.90
16289;DHT22;26089;43.538;5.250;2022-08-04T10:35:04;36.60;99.90
16289;DHT22;26089;43.538;5.250;2022-08-04T10:37:39;37.00;99.90
16289;DHT22;26089;43.538;5.250;2022-08-04T10:40:13;37.20;99.90
16289;DHT22;26089;43.538;5.250;2022-08-04T10:43:04;36.90;99.90
16289;DHT22;26089;43.538;5.250;2022-08-04T10:45:40;36.90;99.90
16289;DHT22;26089;43.538;5.250;2022-08-04T10:48:15;37.20;99.90
16289;DHT22;26089;43.538;5.250;2022-08-04T10:50:54;36.30;99.90
16289;DHT22;26089;43.538;5.250;2022-08-04T10:53:25;35.60;99.90
16289;DHT22;26089;43.538;5.250;2022-08-04T10:55:58;35.00;99.90
16289;DHT22;26089;43.538;5.250;2022-08-04T10:58:34;35.00;99.90
16289;DHT22;26089;43.538;5.250;2022-08-04T11:01:10;34.90;99.90
16289;DHT22;26089;43.538;5.250;2022-08-04T11:03:43;34.90;99.90
16289;DHT22;26089;43.538;5.250;2022-08-04T11:06:14;34.90;99.90
16289;DHT22;26089;43.538;5.250;2022-08-04T11:08:45;35.00;99.90
16289;DHT22;26089;43.538;5.250;2022-08-04T11:11:19;35.10;99.90
16289;DHT22;26089;43.538;5.250;2022-08-04T11:13:56;34.80;99.90
16289;DHT22;26089;43.538;5.250;2022-08-04T11:16:28;34.80;99.90
16289;DHT22;26089;43.538;5.250;2022-08-04T11:21:54;35.00;99.90
16289;DHT22;26089;43.538;5.250;2022-08-04T11:24:25;34.80;99.90
16289;DHT22;26089;43.538;5.250;2022-08-04T11:27:00;35.10;99.90
16289;DHT22;26089;43.538;5.250;2022-08-04T11:29:37;34.80;99.90
16289;DHT22;26089;43.538;5.250;2022-08-04T11:32:16;35.40;99.90
16289;DHT22;26089;43.538;5.250;2022-08-04T11:34:47;35.50;99.90
16289;DHT22;26089;43.538;5.250;2022-08-04T11:37:19;35.70;99.90
16289;DHT22;26089;43.538;5.250;2022-08-04T11:39:50;35.40;99.90
16289;DHT22;26089;43.538;5.250;2022-08-04T11:42:21;35.30;99.90
16289;DHT22;26089;43.538;5.250;2022-08-04T11:44:51;35.50;98.90
16289;DHT22;26089;43.538;5.250;2022-08-04T11:47:27;35.00;98.40
16289;DHT22;26089;43.538;5.250;2022-08-04T11:50:02;35.20;97.80
16289;DHT22;26089;43.538;5.250;2022-08-04T11:52:31;35.40;96.10
16289;DHT22;26089;43.538;5.250;2022-08-04T11:55:02;35.60;95.80
16289;DHT22;26089;43.538;5.250;2022-08-04T11:57:30;35.70;95.10
16289;DHT22;26089;43.538;5.250;2022-08-04T11:59:58;35.90;93.50
16289;DHT22;26089;43.538;5.250;2022-08-04T12:02:49;36.10;92.50
16289;DHT22;26089;43.538;5.250;2022-08-04T12:05:26;36.30;89.80
16289;DHT22;26089;43.538;5.250;2022-08-04T12:08:05;36.40;89.00
16289;DHT22;26089;43.538;5.250;2022-08-04T12:10:41;36.30;84.30
16289;DHT22;26089;43.538;5.250;2022-08-04T12:13:21;36.40;84.50
16289;DHT22;26089;43.538;5.250;2022-08-04T12:16:00;36.50;80.80
16289;DHT22;26089;43.538;5.250;2022-08-04T12:18:36;36.90;78.30
16289;DHT22;26089;43.538;5.250;2022-08-04T12:21:08;36.80;78.10
16289;DHT22;26089;43.538;5.250;2022-08-04T12:23:38;36.40;76.60
16289;DHT22;26089;43.538;5.250;2022-08-04T12:26:08;36.70;77.40
16289;DHT22;26089;43.538;5.250;2022-08-04T12:28:38;36.50;75.90
16289;DHT22;26089;43.538;5.250;2022-08-04T12:31:11;36.60;78.00
16289;DHT22;26089;43.538;5.250;2022-08-04T12:33:46;36.80;77.60
16289;DHT22;26089;43.538;5.250;2022-08-04T12:36:20;37.30;76.60
16289;DHT22;26089;43.538;5.250;2022-08-04T12:38:53;37.20;75.90
16289;DHT22;26089;43.538;5.250;2022-08-04T12:41:30;37.60;76.40
16289;DHT22;26089;43.538;5.250;2022-08-04T12:44:03;38.20;73.90
16289;DHT22;26089;43.538;5.250;2022-08-04T12:46:32;38.00;73.00
16289;DHT22;26089;43.538;5.250;2022-08-04T12:49:02;37.60;73.30
16289;DHT22;26089;43.538;5.250;2022-08-04T12:51:36;37.70;74.10
16289;DHT22;26089;43.538;5.250;2022-08-04T12:54:06;38.10;72.20
16289;DHT22;26089;43.538;5.250;2022-08-04T12:56:34;38.20;72.00
16289;DHT22;26089;43.538;5.250;2022-08-04T12:59:04;38.60;72.80
16289;DHT22;26089;43.538;5.250;2022-08-04T13:01:32;38.80;71.80
16289;DHT22;26089;43.538;5.250;2022-08-04T13:04:09;38.20;73.20
16289;DHT22;26089;43.538;5.250;2022-08-04T13:06:37;38.50;71.30
16289;DHT22;26089;43.538;5.250;2022-08-04T13:09:07;38.20;72.20
16289;DHT22;26089;43.538;5.250;2022-08-04T13:11:38;37.90;74.30
16289;DHT22;26089;43.538;5.250;2022-08-04T13:14:07;37.80;75.50
16289;DHT22;26089;43.538;5.250;2022-08-04T13:16:35;37.90;74.80
16289;DHT22;26089;43.538;5.250;2022-08-04T13:19:06;37.80;75.80
16289;DHT22;26089;43.538;5.250;2022-08-04T13:21:38;38.10;74.70
16289;DHT22;26089;43.538;5.250;2022-08-04T13:24:09;38.20;74.10
16289;DHT22;26089;43.538;5.250;2022-08-04T13:26:49;38.30;73.70
16289;DHT22;26089;43.538;5.250;2022-08-04T13:29:17;37.80;73.10
16289;DHT22;26089;43.538;5.250;2022-08-04T13:31:46;38.10;72.70
16289;DHT22;26089;43.538;5.250;2022-08-04T13:34:15;38.40;72.50
16289;DHT22;26089;43.538;5.250;2022-08-04T13:36:44;37.90;72.30
16289;DHT22;26089;43.538;5.250;2022-08-04T13:39:15;38.10;70.90
16289;DHT22;26089;43.538;5.250;2022-08-04T13:41:45;37.80;70.50
16289;DHT22;26089;43.538;5.250;2022-08-04T13:44:17;37.50;70.50
16289;DHT22;26089;43.538;5.250;2022-08-04T13:46:48;37.50;70.10
16289;DHT22;26089;43.538;5.250;2022-08-04T13:49:18;37.50;68.90
16289;DHT22;26089;43.538;5.250;2022-08-04T13:51:50;37.00;68.80
16289;DHT22;26089;43.538;5.250;2022-08-04T13:54:18;36.70;70.30
16289;DHT22;26089;43.538;5.250;2022-08-04T13:56:49;36.80;69.80
16289;DHT22;26089;43.538;5.250;2022-08-04T13:59:18;36.70;70.90
16289;DHT22;26089;43.538;5.250;2022-08-04T14:01:58;37.20;70.90
16289;DHT22;26089;43.538;5.250;2022-08-04T14:04:27;37.70;69.30
16289;DHT22;26089;43.538;5.250;2022-08-04T14:07:02;37.50;69.10
16289;DHT22;26089;43.538;5.250;2022-08-04T14:09:32;37.70;69.50
16289;DHT22;26089;43.538;5.250;2022-08-04T14:12:05;37.40;70.20
16289;DHT22;26089;43.538;5.250;2022-08-04T14:14:35;37.10;71.40
16289;DHT22;26089;43.538;5.250;2022-08-04T14:17:04;37.00;74.10
16289;DHT22;26089;43.538;5.250;2022-08-04T14:19:51;37.00;71.90
16289;DHT22;26089;43.538;5.250;2022-08-04T14:22:33;35.80;75.80
16289;DHT22;26089;43.538;5.250;2022-08-04T14:25:03;35.30;74.80
16289;DHT22;26089;43.538;5.250;2022-08-04T14:27:40;35.60;74.50
16289;DHT22;26089;43.538;5.250;2022-08-04T14:30:23;35.60;76.90
16289;DHT22;26089;43.538;5.250;2022-08-04T14:32:59;35.90;75.20
16289;DHT22;26089;43.538;5.250;2022-08-04T14:35:28;35.50;75.70
16289;DHT22;26089;43.538;5.250;2022-08-04T14:37:58;35.30;74.40
16289;DHT22;26089;43.538;5.250;2022-08-04T14:40:27;34.90;75.20
16289;DHT22;26089;43.538;5.250;2022-08-04T14:42:54;35.10;76.20
16289;DHT22;26089;43.538;5.250;2022-08-04T14:45:30;35.20;76.10
16289;DHT22;26089;43.538;5.250;2022-08-04T14:47:58;35.10;79.10
16289;DHT22;26089;43.538;5.250;2022-08-04T14:50:35;35.00;80.10
16289;DHT22;26089;43.538;5.250;2022-08-04T14:53:05;34.80;82.10
16289;DHT22;26089;43.538;5.250;2022-08-04T14:55:33;34.50;83.90
16289;DHT22;26089;43.538;5.250;2022-08-04T14:58:00;34.50;82.40
16289;DHT22;26089;43.538;5.250;2022-08-04T15:00:30;34.40;83.30
16289;DHT22;26089;43.538;5.250;2022-08-04T15:03:01;34.30;85.30
16289;DHT22;26089;43.538;5.250;2022-08-04T15:05:29;34.20;85.90
16289;DHT22;26089;43.538;5.250;2022-08-04T15:07:59;34.40;86.70
16289;DHT22;26089;43.538;5.250;2022-08-04T15:10:26;34.30;87.10
16289;DHT22;26089;43.538;5.250;2022-08-04T15:12:54;34.30;88.80
16289;DHT22;26089;43.538;5.250;2022-08-04T15:15:21;34.10;85.60
16289;DHT22;26089;43.538;5.250;2022-08-04T15:17:49;34.20;88.20
16289;DHT22;26089;43.538;5.250;2022-08-04T15:20:17;34.10;89.40
16289;DHT22;26089;43.538;5.250;2022-08-04T15:22:44;33.90;90.10
16289;DHT22;26089;43.538;5.250;2022-08-04T15:25:12;33.90;91.10
16289;DHT22;26089;43.538;5.250;2022-08-04T15:27:40;33.60;92.00
16289;DHT22;26089;43.538;5.250;2022-08-04T15:30:10;33.70;92.70
16289;DHT22;26089;43.538;5.250;2022-08-04T15:32:40;33.90;92.90
16289;DHT22;26089;43.538;5.250;2022-08-04T15:35:10;33.80;92.70
16289;DHT22;26089;43.538;5.250;2022-08-04T15:37:48;33.80;93.80
16289;DHT22;26089;43.538;5.250;2022-08-04T15:40:26;33.60;93.90
16289;DHT22;26089;43.538;5.250;2022-08-04T15:43:12;33.40;94.10
16289;DHT22;26089;43.538;5.250;2022-08-04T15:45:50;33.50;94.40
16289;DHT22;26089;43.538;5.250;2022-08-04T15:48:26;33.30;94.60
16289;DHT22;26089;43.538;5.250;2022-08-04T15:51:09;33.10;95.20
16289;DHT22;26089;43.538;5.250;2022-08-04T15:56:45;33.10;96.10
16289;DHT22;26089;43.538;5.250;2022-08-04T15:59:12;33.20;95.60
16289;DHT22;26089;43.538;5.250;2022-08-04T16:01:41;32.80;95.80
16289;DHT22;26089;43.538;5.250;2022-08-04T16:04:22;32.60;96.80
16289;DHT22;26089;43.538;5.250;2022-08-04T16:06:50;32.70;97.00
16289;DHT22;26089;43.538;5.250;2022-08-04T16:09:25;32.60;97.20
16289;DHT22;26089;43.538;5.250;2022-08-04T16:11:54;32.60;97.20
16289;DHT22;26089;43.538;5.250;2022-08-04T16:14:34;32.50;97.30
16289;DHT22;26089;43.538;5.250;2022-08-04T16:17:15;32.30;97.90
16289;DHT22;26089;43.538;5.250;2022-08-04T16:19:55;32.10;97.70
16289;DHT22;26089;43.538;5.250;2022-08-04T16:22:32;32.00;97.80
16289;DHT22;26089;43.538;5.250;2022-08-04T16:25:00;31.90;98.80
16289;DHT22;26089;43.538;5.250;2022-08-04T16:27:43;31.90;98.90
16289;DHT22;26089;43.538;5.250;2022-08-04T16:30:12;31.60;99.40
16289;DHT22;26089;43.538;5.250;2022-08-04T16:32:42;31.70;99.90
16289;DHT22;26089;43.538;5.250;2022-08-04T16:35:23;31.80;98.90
16289;DHT22;26089;43.538;5.250;2022-08-04T16:38:09;31.50;98.70
16289;DHT22;26089;43.538;5.250;2022-08-04T16:40:38;31.60;97.80
16289;DHT22;26089;43.538;5.250;2022-08-04T16:43:11;31.80;97.20
16289;DHT22;26089;43.538;5.250;2022-08-04T16:45:44;32.00;98.20
16289;DHT22;26089;43.538;5.250;2022-08-04T16:48:12;32.20;98.80
16289;DHT22;26089;43.538;5.250;2022-08-04T16:50:47;32.20;97.90
16289;DHT22;26089;43.538;5.250;2022-08-04T16:53:15;32.40;97.70
16289;DHT22;26089;43.538;5.250;2022-08-04T16:55:49;32.30;97.80
16289;DHT22;26089;43.538;5.250;2022-08-04T16:58:24;32.20;99.00
16289;DHT22;26089;43.538;5.250;2022-08-04T17:00:52;32.00;99.90
16289;DHT22;26089;43.538;5.250;2022-08-04T17:03:20;32.00;99.90
16289;DHT22;26089;43.538;5.250;2022-08-04T17:05:47;32.00;99.90